createdAt,value
2022-11-02T00:00:31.598Z,99.90
2022-11-02T00:02:59.648Z,99.90
2022-11-02T00:05:28.083Z,99.90
2022-11-02T00:07:56.912Z,99.90
2022-11-02T00:10:25.842Z,99.90
2022-11-02T00:12:54.458Z,99.90
2022-11-02T00:15:25.724Z,99.90
2022-11-02T00:17:56.932Z,99.90
2022-11-02T00:20:26.448Z,99.90
2022-11-02T00:22:58.671Z,99.90
2022-11-02T00:25:28.695Z,99.90
2022-11-02T00:27:56.827Z,99.90
2022-11-02T00:30:26.180Z,99.90
2022-11-02T00:32:54.109Z,99.90
2022-11-02T00:35:22.082Z,99.90
2022-11-02T00:37:50.036Z,99.90
2022-11-02T00:40:18.412Z,99.90
2022-11-02T00:42:46.369Z,99.90
2022-11-02T00:45:14.300Z,99.90
2022-11-02T00:47:43.597Z,99.90
2022-11-02T00:50:11.574Z,99.90
2022-11-02T00:52:40.349Z,99.90
2022-11-02T00:55:09.589Z,99.90
2022-11-02T00:57:38.169Z,99.90
2022-11-02T01:00:07.872Z,99.90
2022-11-02T01:02:36.171Z,99.90
2022-11-02T01:05:06.459Z,99.90
2022-11-02T01:07:34.440Z,99.90
2022-11-02T01:10:02.530Z,99.90
2022-11-02T01:12:30.473Z,99.90
2022-11-02T01:14:58.423Z,99.90
2022-11-02T01:17:26.519Z,99.90
2022-11-02T01:19:54.511Z,99.90
2022-11-02T01:22:23.788Z,99.90
2022-11-02T01:24:51.740Z,99.90
2022-11-02T01:27:19.680Z,99.90
2022-11-02T01:29:47.762Z,99.90
2022-11-02T01:32:15.737Z,99.90
2022-11-02T01:34:43.666Z,99.90
2022-11-02T01:37:11.719Z,99.90
2022-11-02T01:39:41.120Z,99.90
2022-11-02T01:42:19.280Z,99.90
2022-11-02T01:44:47.217Z,99.90
2022-11-02T01:47:20.426Z,99.90
2022-11-02T01:49:53.038Z,99.90
2022-11-02T01:52:26.776Z,99.90
2022-11-02T01:55:02.450Z,99.90
2022-11-02T01:57:32.488Z,99.90
2022-11-02T02:00:06.157Z,99.90
2022-11-02T02:02:39.789Z,99.90
2022-11-02T02:05:10.786Z,99.90
2022-11-02T02:07:41.051Z,99.90
2022-11-02T02:10:10.708Z,99.90
2022-11-02T02:12:40.826Z,99.90
2022-11-02T02:15:10.166Z,99.90
2022-11-02T02:17:45.867Z,99.90
2022-11-02T02:20:26.074Z,99.90
2022-11-02T02:23:22.678Z,99.90
2022-11-02T02:26:34.174Z,99.90
2022-11-02T02:29:10.294Z,99.90
2022-11-02T02:31:44.104Z,99.90
2022-11-02T02:34:18.574Z,99.90
2022-11-02T02:36:51.408Z,99.90
2022-11-02T02:39:24.811Z,99.90
2022-11-02T02:41:59.429Z,99.90
2022-11-02T02:44:34.172Z,99.90
2022-11-02T02:47:06.124Z,99.90
2022-11-02T02:49:41.682Z,99.90
2022-11-02T02:52:10.573Z,99.90
2022-11-02T02:54:41.977Z,99.90
2022-11-02T02:57:14.267Z,99.90
2022-11-02T02:59:45.628Z,99.90
2022-11-02T03:02:18.265Z,99.90
2022-11-02T03:04:46.361Z,99.90
2022-11-02T03:07:19.553Z,99.90
2022-11-02T03:09:52.949Z,99.90
2022-11-02T03:12:28.516Z,99.90
2022-11-02T03:15:10.443Z,99.90
2022-11-02T03:17:48.977Z,99.90
2022-11-02T03:20:23.961Z,99.90
2022-11-02T03:23:02.860Z,99.90
2022-11-02T03:25:40.747Z,99.90
2022-11-02T03:28:13.766Z,99.90
2022-11-02T03:30:48.181Z,99.90
2022-11-02T03:33:21.073Z,99.90
2022-11-02T03:35:53.578Z,99.90
2022-11-02T03:38:26.069Z,99.90
2022-11-02T03:40:57.182Z,99.90
2022-11-02T03:43:26.098Z,99.90
2022-11-02T03:45:57.889Z,99.90
2022-11-02T03:48:36.079Z,99.90
2022-11-02T03:51:10.128Z,99.90
2022-11-02T03:53:45.786Z,99.90
2022-11-02T03:56:20.743Z,99.90
2022-11-02T03:58:48.728Z,99.90
2022-11-02T04:01:20.141Z,99.90
2022-11-02T04:03:48.959Z,99.90
2022-11-02T04:06:17.032Z,99.90
2022-11-02T04:08:47.826Z,99.90
2022-11-02T04:11:34.168Z,99.90
2022-11-02T04:14:19.593Z,99.90
2022-11-02T04:16:48.870Z,99.90
2022-11-02T04:19:27.900Z,99.90
2022-11-02T04:22:13.574Z,99.90
2022-11-02T04:24:59.565Z,99.90
2022-11-02T04:27:27.616Z,99.90
2022-11-02T04:29:55.575Z,99.90
2022-11-02T04:32:42.167Z,99.90
2022-11-02T04:35:10.995Z,99.90
2022-11-02T04:37:59.605Z,99.90
2022-11-02T04:40:28.076Z,99.90
2022-11-02T04:42:55.999Z,99.90
2022-11-02T04:45:23.989Z,99.90
2022-11-02T04:47:53.314Z,99.90
2022-11-02T04:50:21.263Z,99.90
2022-11-02T04:52:56.723Z,99.90
2022-11-02T04:55:24.742Z,99.90
2022-11-02T04:57:52.685Z,99.90
2022-11-02T05:00:21.940Z,99.90
2022-11-02T05:02:50.511Z,99.90
2022-11-02T05:05:19.902Z,99.90
2022-11-02T05:07:47.870Z,99.90
2022-11-02T05:10:16.054Z,99.90
2022-11-02T05:12:43.988Z,99.90
2022-11-02T05:15:12.089Z,99.90
2022-11-02T05:17:40.054Z,99.90
2022-11-02T05:20:08.832Z,99.90
2022-11-02T05:22:38.265Z,99.90
2022-11-02T05:25:06.738Z,99.90
2022-11-02T05:27:34.682Z,99.90
2022-11-02T05:30:02.689Z,99.90
2022-11-02T05:32:30.660Z,99.90
2022-11-02T05:34:58.795Z,99.90
2022-11-02T05:37:26.752Z,99.90
2022-11-02T05:39:56.063Z,99.90
2022-11-02T05:42:24.037Z,99.90
2022-11-02T05:44:52.036Z,99.90
2022-11-02T05:47:19.990Z,99.90
2022-11-02T05:49:47.929Z,99.90
2022-11-02T05:52:16.022Z,99.90
2022-11-02T05:54:44.037Z,99.90
2022-11-02T05:57:13.797Z,99.90
2022-11-02T05:59:43.878Z,99.90
2022-11-02T06:02:14.685Z,99.90
2022-11-02T06:04:42.609Z,99.90
2022-11-02T06:07:10.533Z,99.90
2022-11-02T06:09:38.472Z,99.90
2022-11-02T06:12:07.047Z,99.90
2022-11-02T06:14:36.357Z,99.90
2022-11-02T06:17:04.338Z,99.90
2022-11-02T06:19:32.311Z,99.90
2022-11-02T06:22:00.241Z,99.90
2022-11-02T06:24:28.199Z,99.90
2022-11-02T06:26:56.443Z,99.90
2022-11-02T06:29:24.436Z,99.90
2022-11-02T06:31:53.718Z,99.90
2022-11-02T06:34:21.696Z,99.90
2022-11-02T06:36:49.692Z,99.90
2022-11-02T06:39:17.622Z,99.90
2022-11-02T06:41:45.601Z,99.90
2022-11-02T06:44:13.541Z,99.90
2022-11-02T06:46:41.460Z,99.90
2022-11-02T06:49:10.750Z,99.90
2022-11-02T06:51:38.856Z,99.90
2022-11-02T06:54:08.841Z,99.90
2022-11-02T06:56:36.964Z,99.90
2022-11-02T06:59:04.925Z,99.90
2022-11-02T07:01:33.032Z,99.90
2022-11-02T07:04:01.111Z,99.90
2022-11-02T07:06:30.528Z,99.90
2022-11-02T07:08:58.500Z,99.90
2022-11-02T07:11:26.458Z,99.90
2022-11-02T07:13:54.423Z,99.90
2022-11-02T07:16:22.381Z,99.90
2022-11-02T07:18:50.306Z,99.90
2022-11-02T07:23:47.524Z,99.90
2022-11-02T07:26:15.463Z,99.90
2022-11-02T07:28:43.412Z,99.90
2022-11-02T07:31:11.383Z,99.90
2022-11-02T07:33:39.329Z,99.90
2022-11-02T07:36:08.054Z,99.90
2022-11-02T07:38:36.044Z,99.90
2022-11-02T07:41:05.589Z,99.90
2022-11-02T07:43:33.538Z,99.90
2022-11-02T07:46:03.510Z,99.90
2022-11-02T07:48:31.655Z,99.90
2022-11-02T07:51:00.425Z,99.90
2022-11-02T07:53:28.411Z,99.90
2022-11-02T07:55:56.362Z,99.90
2022-11-02T07:58:26.954Z,99.90
2022-11-02T08:00:59.635Z,99.90
2022-11-02T08:03:28.357Z,99.90
2022-11-02T08:05:56.441Z,99.90
2022-11-02T08:08:25.588Z,99.90
2022-11-02T08:10:53.942Z,99.90
2022-11-02T08:13:24.034Z,99.90
2022-11-02T08:15:54.345Z,99.90
2022-11-02T08:18:24.196Z,99.90
2022-11-02T08:20:52.691Z,99.90
2022-11-02T08:23:21.861Z,99.90
2022-11-02T08:25:51.349Z,99.90
2022-11-02T08:28:21.602Z,99.90
2022-11-02T08:30:49.596Z,99.90
2022-11-02T08:33:20.239Z,99.90
2022-11-02T08:35:49.409Z,99.90
2022-11-02T08:38:18.365Z,99.90
2022-11-02T08:40:46.461Z,99.90
2022-11-02T08:43:15.897Z,99.90
2022-11-02T08:48:34.855Z,99.90
2022-11-02T08:51:02.826Z,99.90
2022-11-02T08:53:30.777Z,99.90
2022-11-02T08:55:59.257Z,99.90
2022-11-02T08:58:27.260Z,99.90
2022-11-02T09:00:55.994Z,99.90
2022-11-02T09:03:27.147Z,99.90
2022-11-02T09:06:01.372Z,99.90
2022-11-02T09:08:30.124Z,99.90
2022-11-02T09:11:01.282Z,99.90
2022-11-02T09:13:29.813Z,99.90
2022-11-02T09:15:59.469Z,99.90
2022-11-02T09:18:27.574Z,99.90
2022-11-02T09:20:55.565Z,99.90
2022-11-02T09:23:25.212Z,99.90
2022-11-02T09:25:53.644Z,99.90
2022-11-02T09:28:22.506Z,99.90
2022-11-02T09:30:50.447Z,99.90
2022-11-02T09:33:18.710Z,99.90
2022-11-02T09:35:49.031Z,99.90
2022-11-02T09:38:18.440Z,99.90
2022-11-02T09:40:54.694Z,99.90
2022-11-02T09:43:32.682Z,99.90
2022-11-02T09:46:06.217Z,99.90
2022-11-02T09:48:37.657Z,99.90
2022-11-02T09:51:09.938Z,99.90
2022-11-02T09:53:52.173Z,99.90
2022-11-02T09:56:21.647Z,99.90
2022-11-02T09:58:54.852Z,99.90
2022-11-02T10:01:42.697Z,99.90
2022-11-02T10:04:54.724Z,99.90
2022-11-02T10:07:35.400Z,99.90
2022-11-02T10:10:08.066Z,99.90
2022-11-02T10:12:46.283Z,99.90
2022-11-02T10:15:20.258Z,99.90
2022-11-02T10:17:53.705Z,99.90
2022-11-02T10:20:26.911Z,99.90
2022-11-02T10:22:57.131Z,99.90
2022-11-02T10:25:25.773Z,99.90
2022-11-02T10:28:04.390Z,99.90
2022-11-02T10:30:33.625Z,99.90
2022-11-02T10:33:01.794Z,99.90
2022-11-02T10:35:57.689Z,99.90
2022-11-02T10:38:37.942Z,99.90
2022-11-02T10:41:33.038Z,99.90
2022-11-02T10:44:18.493Z,99.90
2022-11-02T10:47:02.455Z,99.90
2022-11-02T10:50:05.858Z,99.90
2022-11-02T10:52:38.167Z,99.80
2022-11-02T10:55:08.929Z,99.90
2022-11-02T10:57:40.600Z,99.90
2022-11-02T11:00:31.148Z,99.90
2022-11-02T11:03:07.557Z,99.90
2022-11-02T11:05:38.875Z,99.20
2022-11-02T11:08:07.332Z,99.30
2022-11-02T11:10:39.197Z,98.60
2022-11-02T11:15:57.910Z,98.10
2022-11-02T11:21:14.354Z,97.50
2022-11-02T11:23:42.667Z,97.00
2022-11-02T11:26:28.533Z,96.70
2022-11-02T11:28:57.771Z,95.80
2022-11-02T11:31:27.492Z,95.70
2022-11-02T11:33:57.374Z,95.20
2022-11-02T11:36:28.725Z,95.20
2022-11-02T11:38:59.985Z,95.20
2022-11-02T11:41:28.442Z,95.20
2022-11-02T11:43:56.742Z,95.20
2022-11-02T11:46:39.683Z,95.40
2022-11-02T11:49:20.558Z,95.70
2022-11-02T11:51:51.880Z,95.90
2022-11-02T11:54:25.037Z,96.30
2022-11-02T11:56:55.152Z,96.30
2022-11-02T11:59:26.497Z,96.30
2022-11-02T12:01:58.681Z,96.60
2022-11-02T12:04:35.306Z,96.80
2022-11-02T12:07:45.281Z,97.10
2022-11-02T12:10:18.907Z,96.70
2022-11-02T12:13:03.133Z,97.10
2022-11-02T12:15:44.965Z,97.10
2022-11-02T12:18:36.666Z,97.10
2022-11-02T12:21:21.210Z,96.80
2022-11-02T12:24:05.650Z,96.80
2022-11-02T12:26:49.690Z,96.60
2022-11-02T12:29:45.665Z,96.10
2022-11-02T12:32:31.252Z,95.40
2022-11-02T12:35:32.593Z,95.40
2022-11-02T12:38:17.349Z,95.20
2022-11-02T12:40:55.952Z,94.80
2022-11-02T12:43:38.633Z,94.90
2022-11-02T12:46:21.699Z,94.60
2022-11-02T12:49:04.657Z,94.50
2022-11-02T12:51:39.960Z,94.60
2022-11-02T12:54:11.895Z,94.40
2022-11-02T12:56:47.277Z,94.50
2022-11-02T12:59:20.240Z,94.30
2022-11-02T13:01:52.859Z,94.70
2022-11-02T13:04:28.141Z,94.60
2022-11-02T13:07:04.380Z,94.60
2022-11-02T13:09:37.179Z,94.30
2022-11-02T13:12:09.535Z,93.90
2022-11-02T13:14:41.829Z,93.80
2022-11-02T13:17:16.417Z,93.60
2022-11-02T13:19:49.829Z,93.60
2022-11-02T13:22:21.770Z,92.80
2022-11-02T13:24:54.251Z,93.30
2022-11-02T13:27:36.908Z,93.10
2022-11-02T13:30:14.386Z,92.80
2022-11-02T13:32:45.687Z,92.70
2022-11-02T13:35:20.876Z,93.00
2022-11-02T13:37:54.804Z,92.70
2022-11-02T13:40:26.385Z,93.00
2022-11-02T13:43:19.661Z,93.20
2022-11-02T13:46:13.567Z,93.40
2022-11-02T13:48:51.897Z,93.80
2022-11-02T13:51:27.330Z,93.90
2022-11-02T13:54:01.823Z,94.00
2022-11-02T13:56:31.087Z,94.20
2022-11-02T13:59:03.422Z,94.40
2022-11-02T14:01:36.590Z,94.70
2022-11-02T14:04:08.365Z,94.90
2022-11-02T14:06:48.778Z,95.20
2022-11-02T14:09:30.817Z,95.30
2022-11-02T14:12:28.335Z,95.40
2022-11-02T14:15:46.962Z,95.90
2022-11-02T14:18:31.454Z,96.00
2022-11-02T14:21:00.438Z,95.90
2022-11-02T14:23:41.179Z,96.00
2022-11-02T14:26:33.214Z,96.20
2022-11-02T14:29:04.968Z,96.40
2022-11-02T14:31:53.502Z,96.50
2022-11-02T14:34:33.163Z,96.90
2022-11-02T14:37:22.720Z,97.20
2022-11-02T14:39:57.540Z,97.60
2022-11-02T14:43:10.441Z,97.80
2022-11-02T14:45:56.681Z,97.80
2022-11-02T14:48:30.740Z,98.10
2022-11-02T14:51:02.983Z,98.20
2022-11-02T14:53:35.723Z,98.40
2022-11-02T14:56:04.266Z,98.60
2022-11-02T14:58:36.378Z,98.60
2022-11-02T15:01:05.944Z,98.80
2022-11-02T15:03:37.730Z,98.80
2022-11-02T15:06:14.439Z,99.10
2022-11-02T15:08:52.561Z,99.40
2022-11-02T15:11:45.953Z,99.70
2022-11-02T15:14:49.650Z,99.90
2022-11-02T15:17:59.322Z,99.90
2022-11-02T15:20:32.773Z,99.90
2022-11-02T15:23:30.727Z,99.90
2022-11-02T15:26:00.386Z,99.90
2022-11-02T15:28:33.777Z,99.90
2022-11-02T15:31:07.537Z,99.90
2022-11-02T15:33:38.931Z,99.90
2022-11-02T15:36:14.397Z,99.90
2022-11-02T15:38:42.446Z,99.90
2022-11-02T15:41:21.150Z,99.90
2022-11-02T15:44:04.304Z,99.90
2022-11-02T15:46:43.448Z,99.90
2022-11-02T15:49:23.972Z,99.90
2022-11-02T15:52:00.530Z,99.90
2022-11-02T15:54:47.095Z,99.90
2022-11-02T15:57:24.847Z,99.90
2022-11-02T16:00:13.153Z,99.90
2022-11-02T16:02:44.700Z,99.90
2022-11-02T16:05:22.809Z,99.90
2022-11-02T16:10:41.148Z,99.90
2022-11-02T16:13:17.839Z,99.90
2022-11-02T16:15:46.962Z,99.90
2022-11-02T16:18:27.383Z,99.90
2022-11-02T16:20:59.564Z,99.90
2022-11-02T16:23:30.146Z,99.90
2022-11-02T16:26:00.269Z,99.90
2022-11-02T16:28:30.290Z,99.90
2022-11-02T16:31:08.085Z,99.90
2022-11-02T16:33:43.871Z,99.90
2022-11-02T16:36:15.113Z,99.90
2022-11-02T16:38:59.984Z,99.90
2022-11-02T16:41:29.593Z,99.90
2022-11-02T16:43:59.696Z,99.90
2022-11-02T16:46:32.016Z,99.90
2022-11-02T16:49:15.341Z,99.90
2022-11-02T16:51:50.999Z,99.90
2022-11-02T16:54:26.791Z,99.90
2022-11-02T16:56:56.633Z,99.90
2022-11-02T16:59:25.536Z,99.90
2022-11-02T17:02:00.056Z,99.90
2022-11-02T17:04:32.651Z,99.90
2022-11-02T17:07:12.690Z,99.90
2022-11-02T17:09:42.273Z,99.90
2022-11-02T17:12:16.070Z,98.60
2022-11-02T17:14:45.531Z,98.50
2022-11-02T17:17:32.191Z,98.10
2022-11-02T17:20:19.998Z,97.90
2022-11-02T17:23:01.749Z,97.80
2022-11-02T17:25:31.309Z,97.30
2022-11-02T17:28:00.723Z,97.20
2022-11-02T17:30:53.026Z,97.10
2022-11-02T17:33:25.829Z,96.60
2022-11-02T17:35:57.643Z,96.60
2022-11-02T17:38:27.985Z,96.50
2022-11-02T17:40:56.708Z,96.60
2022-11-02T17:43:24.289Z,96.80
2022-11-02T17:45:56.846Z,96.80
2022-11-02T17:48:25.385Z,97.10
2022-11-02T17:50:55.974Z,96.80
2022-11-02T17:53:25.101Z,96.70
2022-11-02T17:55:54.446Z,96.60
2022-11-02T17:58:22.441Z,96.50
2022-11-02T18:00:53.739Z,96.80
2022-11-02T18:03:25.360Z,96.70
2022-11-02T18:05:59.792Z,96.80
2022-11-02T18:08:28.357Z,96.80
2022-11-02T18:10:56.579Z,96.80
2022-11-02T18:13:25.338Z,96.60
2022-11-02T18:15:53.293Z,96.70
2022-11-02T18:18:21.243Z,96.50
2022-11-02T18:20:49.672Z,96.70
2022-11-02T18:23:20.148Z,96.70
2022-11-02T18:25:48.184Z,97.10
2022-11-02T18:28:16.894Z,97.10
2022-11-02T18:30:45.257Z,96.90
2022-11-02T18:33:14.122Z,96.90
2022-11-02T18:35:44.197Z,97.10
2022-11-02T18:38:12.747Z,97.00
2022-11-02T18:40:42.080Z,96.80
2022-11-02T18:43:10.304Z,97.00
2022-11-02T18:45:38.424Z,97.10
2022-11-02T18:48:07.168Z,97.30
2022-11-02T18:50:35.329Z,97.30
2022-11-02T18:53:03.292Z,97.60
2022-11-02T18:55:31.266Z,97.30
2022-11-02T18:58:00.559Z,97.70
2022-11-02T19:00:28.489Z,97.20
2022-11-02T19:02:56.422Z,97.50
2022-11-02T19:05:41.729Z,97.50
2022-11-02T19:08:28.610Z,97.70
2022-11-02T19:10:56.625Z,97.80
2022-11-02T19:13:25.966Z,97.80
2022-11-02T19:15:54.200Z,97.90
2022-11-02T19:18:22.173Z,98.00
2022-11-02T19:20:50.091Z,97.80
2022-11-02T19:23:18.041Z,97.90
2022-11-02T19:25:51.273Z,98.00
2022-11-02T19:28:19.219Z,98.00
2022-11-02T19:30:48.531Z,97.90
2022-11-02T19:33:16.495Z,97.90
2022-11-02T19:35:44.526Z,97.60
2022-11-02T19:38:12.442Z,97.90
2022-11-02T19:40:40.365Z,97.90
2022-11-02T19:43:08.409Z,98.10
2022-11-02T19:45:36.600Z,98.00
2022-11-02T19:48:06.372Z,97.90
2022-11-02T19:50:34.499Z,97.70
2022-11-02T19:53:02.622Z,97.40
2022-11-02T19:55:30.578Z,97.30
2022-11-02T19:57:58.497Z,97.20
2022-11-02T20:00:26.459Z,97.20
2022-11-02T20:02:54.451Z,97.20
2022-11-02T20:05:23.758Z,97.20
2022-11-02T20:07:52.682Z,97.10
2022-11-02T20:10:20.682Z,97.40
2022-11-02T20:12:48.604Z,97.70
2022-11-02T20:15:16.745Z,97.60
2022-11-02T20:18:05.478Z,97.70
2022-11-02T20:20:34.022Z,97.70
2022-11-02T20:23:02.485Z,97.90
2022-11-02T20:25:30.453Z,98.30
2022-11-02T20:27:58.370Z,98.20
2022-11-02T20:30:26.369Z,98.40
2022-11-02T20:32:54.330Z,98.50
2022-11-02T20:35:25.528Z,98.70
2022-11-02T20:37:55.142Z,98.80
2022-11-02T20:40:23.826Z,98.90
2022-11-02T20:42:51.787Z,99.10
2022-11-02T20:45:19.810Z,99.10
2022-11-02T20:47:47.736Z,99.30
2022-11-02T20:50:17.556Z,99.20
2022-11-02T20:52:46.820Z,99.50
2022-11-02T20:55:16.416Z,99.50
2022-11-02T20:57:47.764Z,99.50
2022-11-02T21:00:16.805Z,99.90
2022-11-02T21:02:45.239Z,99.80
2022-11-02T21:05:13.270Z,99.70
2022-11-02T21:07:41.853Z,99.80
2022-11-02T21:10:11.185Z,99.90
2022-11-02T21:12:59.546Z,99.90
2022-11-02T21:15:27.568Z,99.90
2022-11-02T21:17:55.514Z,99.90
2022-11-02T21:20:39.240Z,99.90
2022-11-02T21:23:07.798Z,99.90
2022-11-02T21:25:36.590Z,99.70
2022-11-02T21:28:06.230Z,99.70
2022-11-02T21:30:34.254Z,99.70
2022-11-02T21:33:02.212Z,99.80
2022-11-02T21:35:30.208Z,99.70
2022-11-02T21:38:01.263Z,99.60
2022-11-02T21:40:31.836Z,99.90
2022-11-02T21:42:59.860Z,99.80
2022-11-02T21:45:32.269Z,99.90
2022-11-02T21:48:04.725Z,99.90
2022-11-02T21:50:32.806Z,99.90
2022-11-02T21:53:00.766Z,99.90
2022-11-02T21:55:28.710Z,99.90
2022-11-02T21:57:56.689Z,99.90
2022-11-02T22:00:44.677Z,99.90
2022-11-02T22:03:13.236Z,99.90
2022-11-02T22:05:59.553Z,99.90
2022-11-02T22:08:39.481Z,99.90
2022-11-02T22:11:09.058Z,99.90
2022-11-02T22:13:37.522Z,99.90
2022-11-02T22:16:14.657Z,99.90
2022-11-02T22:18:45.522Z,99.90
2022-11-02T22:21:14.633Z,99.90
2022-11-02T22:23:42.834Z,99.90
2022-11-02T22:26:13.665Z,99.90
2022-11-02T22:28:43.455Z,99.90
2022-11-02T22:31:13.343Z,99.90
2022-11-02T22:33:45.329Z,99.90
2022-11-02T22:36:16.266Z,99.90
2022-11-02T22:38:51.508Z,99.90
2022-11-02T22:41:21.217Z,99.90
2022-11-02T22:43:49.863Z,99.90
2022-11-02T22:46:17.916Z,99.90
2022-11-02T22:48:47.550Z,99.90
2022-11-02T22:51:15.569Z,99.90
2022-11-02T22:53:43.487Z,99.90
2022-11-02T22:56:13.237Z,99.90
2022-11-02T22:58:42.665Z,99.90
2022-11-02T23:01:12.488Z,99.90
2022-11-02T23:03:40.565Z,99.90
2022-11-02T23:06:10.610Z,99.90
2022-11-02T23:08:40.441Z,99.90
2022-11-02T23:11:22.790Z,99.90
2022-11-02T23:13:55.934Z,99.90
2022-11-02T23:16:25.602Z,99.90
2022-11-02T23:19:14.335Z,99.90
2022-11-02T23:21:45.992Z,99.90
2022-11-02T23:24:31.698Z,99.90
2022-11-02T23:26:59.657Z,99.90
2022-11-02T23:29:45.241Z,99.90
2022-11-02T23:32:27.264Z,99.90
2022-11-02T23:35:14.139Z,99.90
2022-11-02T23:37:44.123Z,99.90
2022-11-02T23:40:14.593Z,99.90
2022-11-02T23:42:42.880Z,99.90
2022-11-02T23:45:12.209Z,99.90
2022-11-02T23:47:58.133Z,99.90
2022-11-02T23:50:46.631Z,99.90
2022-11-02T23:53:35.270Z,99.90
2022-11-02T23:56:20.839Z,99.90
2022-11-02T23:58:49.097Z,99.90
